Heights, Texas
Current Conditions -  °F | °C
As of 12:35 PM on Saturday 20 Dec 2014 (Local Time) from KMCJ Reporting Station
Overcast Overcast  
Wind Chill: 55°   Ceiling: 1000
Heat Index: 55°   Visibility: NA
Dew Point: 48°   Wind: 6mph
Humidity: 77%   Direction: 350°N
Pressure: 30.14"   Gusts: NA
Location:  29.7982°N, 95.4183°W
Report Text: KMCJ 201835Z AUTO 35005KT OVC010 13/09 A3014 RMK AO1
Loading
Personal Weather Stations






























Interactive Weather Map New forecast layout! Learn more

10-Day Weather Forecast

Advertisements
Track Severe Weather on mobile